sensor_id;sensor_type;location;lat;lon;timestamp;P1;durP1;ratioP1;P2;durP2;ratioP2
33954;SDS011;20233;50.804;7.126;2024-03-02T00:02:11;2.30;;;0.85;;
33954;SDS011;20233;50.804;7.126;2024-03-02T00:04:37;2.58;;;0.68;;
33954;SDS011;20233;50.804;7.126;2024-03-02T00:07:03;2.33;;;0.90;;
33954;SDS011;20233;50.804;7.126;2024-03-02T00:09:29;3.72;;;0.80;;
33954;SDS011;20233;50.804;7.126;2024-03-02T00:11:55;2.72;;;1.05;;
33954;SDS011;20233;50.804;7.126;2024-03-02T00:14:21;3.80;;;0.60;;
33954;SDS011;20233;50.804;7.126;2024-03-02T00:16:49;1.83;;;0.60;;
33954;SDS011;20233;50.804;7.126;2024-03-02T00:19:16;1.58;;;0.70;;
33954;SDS011;20233;50.804;7.126;2024-03-02T00:21:42;1.25;;;0.50;;
33954;SDS011;20233;50.804;7.126;2024-03-02T00:24:12;3.45;;;0.90;;
33954;SDS011;20233;50.804;7.126;2024-03-02T00:26:49;2.33;;;1.00;;
33954;SDS011;20233;50.804;7.126;2024-03-02T00:29:15;2.67;;;0.80;;
33954;SDS011;20233;50.804;7.126;2024-03-02T00:31:43;2.90;;;0.70;;
33954;SDS011;20233;50.804;7.126;2024-03-02T00:34:08;1.83;;;0.57;;
33954;SDS011;20233;50.804;7.126;2024-03-02T00:36:37;1.42;;;0.50;;
33954;SDS011;20233;50.804;7.126;2024-03-02T00:39:03;2.33;;;0.50;;
33954;SDS011;20233;50.804;7.126;2024-03-02T00:41:31;2.00;;;0.52;;
33954;SDS011;20233;50.804;7.126;2024-03-02T00:43:58;3.03;;;0.50;;
33954;SDS011;20233;50.804;7.126;2024-03-02T00:46:26;2.15;;;0.75;;
33954;SDS011;20233;50.804;7.126;2024-03-02T00:51:26;1.10;;;0.40;;
33954;SDS011;20233;50.804;7.126;2024-03-02T00:53:52;2.08;;;0.50;;
33954;SDS011;20233;50.804;7.126;2024-03-02T00:56:22;1.40;;;0.43;;
33954;SDS011;20233;50.804;7.126;2024-03-02T00:58:51;2.88;;;0.70;;
33954;SDS011;20233;50.804;7.126;2024-03-02T01:01:18;2.35;;;0.50;;
33954;SDS011;20233;50.804;7.126;2024-03-02T01:03:44;2.38;;;0.70;;
33954;SDS011;20233;50.804;7.126;2024-03-02T01:06:10;1.98;;;0.68;;
33954;SDS011;20233;50.804;7.126;2024-03-02T01:08:36;1.77;;;0.43;;
33954;SDS011;20233;50.804;7.126;2024-03-02T01:11:02;1.33;;;0.50;;
33954;SDS011;20233;50.804;7.126;2024-03-02T01:13:28;1.80;;;0.57;;
33954;SDS011;20233;50.804;7.126;2024-03-02T01:15:54;1.95;;;0.65;;
33954;SDS011;20233;50.804;7.126;2024-03-02T01:18:20;2.15;;;0.65;;
33954;SDS011;20233;50.804;7.126;2024-03-02T01:20:47;2.03;;;0.50;;
33954;SDS011;20233;50.804;7.126;2024-03-02T01:23:13;1.48;;;0.30;;
33954;SDS011;20233;50.804;7.126;2024-03-02T01:25:38;1.35;;;0.50;;
33954;SDS011;20233;50.804;7.126;2024-03-02T01:28:04;1.83;;;0.50;;
33954;SDS011;20233;50.804;7.126;2024-03-02T01:30:30;2.50;;;0.30;;
33954;SDS011;20233;50.804;7.126;2024-03-02T01:32:55;1.48;;;0.45;;
33954;SDS011;20233;50.804;7.126;2024-03-02T01:35:21;3.17;;;0.22;;
33954;SDS011;20233;50.804;7.126;2024-03-02T01:37:47;1.50;;;0.40;;
33954;SDS011;20233;50.804;7.126;2024-03-02T01:40:12;2.72;;;0.32;;
33954;SDS011;20233;50.804;7.126;2024-03-02T01:42:38;1.83;;;0.38;;
33954;SDS011;20233;50.804;7.126;2024-03-02T01:45:05;1.10;;;0.30;;
33954;SDS011;20233;50.804;7.126;2024-03-02T01:47:31;1.60;;;0.50;;
33954;SDS011;20233;50.804;7.126;2024-03-02T01:49:57;2.08;;;0.40;;
33954;SDS011;20233;50.804;7.126;2024-03-02T01:52:24;1.40;;;0.30;;
33954;SDS011;20233;50.804;7.126;2024-03-02T01:54:50;2.53;;;0.30;;
33954;SDS011;20233;50.804;7.126;2024-03-02T01:57:15;1.75;;;0.22;;
33954;SDS011;20233;50.804;7.126;2024-03-02T01:59:41;2.15;;;0.40;;
33954;SDS011;20233;50.804;7.126;2024-03-02T02:02:07;1.38;;;0.40;;
33954;SDS011;20233;50.804;7.126;2024-03-02T02:04:32;2.55;;;0.40;;
33954;SDS011;20233;50.804;7.126;2024-03-02T02:06:58;2.33;;;0.32;;
33954;SDS011;20233;50.804;7.126;2024-03-02T02:09:24;1.60;;;0.30;;
33954;SDS011;20233;50.804;7.126;2024-03-02T02:11:50;1.13;;;0.40;;
33954;SDS011;20233;50.804;7.126;2024-03-02T02:14:16;1.83;;;0.40;;
33954;SDS011;20233;50.804;7.126;2024-03-02T02:16:42;2.72;;;0.60;;
33954;SDS011;20233;50.804;7.126;2024-03-02T02:19:07;4.32;;;0.50;;
33954;SDS011;20233;50.804;7.126;2024-03-02T02:21:34;1.95;;;0.50;;
33954;SDS011;20233;50.804;7.126;2024-03-02T02:23:59;1.38;;;0.32;;
33954;SDS011;20233;50.804;7.126;2024-03-02T02:26:27;2.65;;;0.30;;
33954;SDS011;20233;50.804;7.126;2024-03-02T02:28:53;1.83;;;0.35;;
33954;SDS011;20233;50.804;7.126;2024-03-02T02:31:19;1.80;;;0.50;;
33954;SDS011;20233;50.804;7.126;2024-03-02T02:33:44;1.88;;;0.40;;
33954;SDS011;20233;50.804;7.126;2024-03-02T02:36:10;1.75;;;0.40;;
33954;SDS011;20233;50.804;7.126;2024-03-02T02:38:36;1.80;;;0.43;;
33954;SDS011;20233;50.804;7.126;2024-03-02T02:41:05;3.50;;;0.50;;
33954;SDS011;20233;50.804;7.126;2024-03-02T02:43:31;1.70;;;0.40;;
33954;SDS011;20233;50.804;7.126;2024-03-02T02:45:56;1.88;;;0.32;;
33954;SDS011;20233;50.804;7.126;2024-03-02T02:48:22;1.35;;;0.38;;
33954;SDS011;20233;50.804;7.126;2024-03-02T02:50:48;1.95;;;0.35;;
33954;SDS011;20233;50.804;7.126;2024-03-02T02:53:13;1.08;;;0.30;;
33954;SDS011;20233;50.804;7.126;2024-03-02T02:55:39;1.52;;;0.43;;
33954;SDS011;20233;50.804;7.126;2024-03-02T02:58:08;3.78;;;0.52;;
33954;SDS011;20233;50.804;7.126;2024-03-02T03:00:34;2.38;;;0.47;;
33954;SDS011;20233;50.804;7.126;2024-03-02T03:03:01;1.58;;;0.50;;
33954;SDS011;20233;50.804;7.126;2024-03-02T03:05:27;1.75;;;0.57;;
33954;SDS011;20233;50.804;7.126;2024-03-02T03:07:52;2.42;;;0.50;;
33954;SDS011;20233;50.804;7.126;2024-03-02T03:10:18;2.45;;;0.40;;
33954;SDS011;20233;50.804;7.126;2024-03-02T03:12:46;3.30;;;0.55;;
33954;SDS011;20233;50.804;7.126;2024-03-02T03:15:12;3.55;;;0.40;;
33954;SDS011;20233;50.804;7.126;2024-03-02T03:17:39;1.65;;;0.50;;
33954;SDS011;20233;50.804;7.126;2024-03-02T03:20:05;2.58;;;0.70;;
33954;SDS011;20233;50.804;7.126;2024-03-02T03:22:35;1.60;;;0.80;;
33954;SDS011;20233;50.804;7.126;2024-03-02T03:25:01;1.58;;;0.40;;
33954;SDS011;20233;50.804;7.126;2024-03-02T03:27:26;1.92;;;0.30;;
33954;SDS011;20233;50.804;7.126;2024-03-02T03:29:52;1.27;;;0.40;;
33954;SDS011;20233;50.804;7.126;2024-03-02T03:32:19;2.15;;;0.40;;
33954;SDS011;20233;50.804;7.126;2024-03-02T03:34:44;3.72;;;0.40;;
33954;SDS011;20233;50.804;7.126;2024-03-02T03:37:10;1.35;;;0.38;;
33954;SDS011;20233;50.804;7.126;2024-03-02T03:39:36;1.48;;;0.47;;
33954;SDS011;20233;50.804;7.126;2024-03-02T03:42:01;2.55;;;0.40;;
33954;SDS011;20233;50.804;7.126;2024-03-02T03:44:27;1.50;;;0.30;;
33954;SDS011;20233;50.804;7.126;2024-03-02T03:46:52;2.05;;;0.70;;
33954;SDS011;20233;50.804;7.126;2024-03-02T03:49:18;2.78;;;0.30;;
33954;SDS011;20233;50.804;7.126;2024-03-02T03:51:43;1.65;;;0.50;;
33954;SDS011;20233;50.804;7.126;2024-03-02T03:54:09;2.28;;;0.40;;
33954;SDS011;20233;50.804;7.126;2024-03-02T03:56:36;2.35;;;0.63;;
33954;SDS011;20233;50.804;7.126;2024-03-02T03:59:02;3.08;;;0.73;;
33954;SDS011;20233;50.804;7.126;2024-03-02T04:01:27;1.27;;;0.40;;
33954;SDS011;20233;50.804;7.126;2024-03-02T04:03:53;1.90;;;0.35;;
33954;SDS011;20233;50.804;7.126;2024-03-02T04:06:18;2.45;;;0.40;;
33954;SDS011;20233;50.804;7.126;2024-03-02T04:08:44;1.88;;;0.40;;
33954;SDS011;20233;50.804;7.126;2024-03-02T04:11:10;2.38;;;0.60;;
33954;SDS011;20233;50.804;7.126;2024-03-02T04:13:35;1.10;;;0.30;;
33954;SDS011;20233;50.804;7.126;2024-03-02T04:16:01;2.63;;;0.50;;
33954;SDS011;20233;50.804;7.126;2024-03-02T04:18:28;1.30;;;0.60;;
33954;SDS011;20233;50.804;7.126;2024-03-02T04:20:54;2.08;;;0.95;;
33954;SDS011;20233;50.804;7.126;2024-03-02T04:23:19;1.63;;;0.40;;
33954;SDS011;20233;50.804;7.126;2024-03-02T04:25:45;1.42;;;0.52;;
33954;SDS011;20233;50.804;7.126;2024-03-02T04:28:10;2.65;;;0.50;;
33954;SDS011;20233;50.804;7.126;2024-03-02T04:30:37;1.60;;;0.35;;
33954;SDS011;20233;50.804;7.126;2024-03-02T04:33:03;2.13;;;0.52;;
33954;SDS011;20233;50.804;7.126;2024-03-02T04:35:29;2.05;;;0.50;;
33954;SDS011;20233;50.804;7.126;2024-03-02T04:37:54;1.80;;;0.43;;
33954;SDS011;20233;50.804;7.126;2024-03-02T04:40:20;2.75;;;0.50;;
33954;SDS011;20233;50.804;7.126;2024-03-02T04:42:45;2.83;;;0.98;;
33954;SDS011;20233;50.804;7.126;2024-03-02T04:45:11;1.52;;;0.50;;
33954;SDS011;20233;50.804;7.126;2024-03-02T04:47:37;2.85;;;0.60;;
33954;SDS011;20233;50.804;7.126;2024-03-02T04:50:02;1.92;;;0.55;;
33954;SDS011;20233;50.804;7.126;2024-03-02T04:52:28;1.95;;;0.73;;
33954;SDS011;20233;50.804;7.126;2024-03-02T04:54:53;1.70;;;0.63;;
33954;SDS011;20233;50.804;7.126;2024-03-02T04:57:34;3.08;;;0.45;;
33954;SDS011;20233;50.804;7.126;2024-03-02T05:00:00;1.90;;;0.60;;
33954;SDS011;20233;50.804;7.126;2024-03-02T05:02:26;1.40;;;0.40;;
33954;SDS011;20233;50.804;7.126;2024-03-02T05:04:51;2.03;;;0.70;;
33954;SDS011;20233;50.804;7.126;2024-03-02T05:07:17;2.63;;;0.60;;
33954;SDS011;20233;50.804;7.126;2024-03-02T05:09:42;2.72;;;1.00;;
33954;SDS011;20233;50.804;7.126;2024-03-02T05:12:08;1.90;;;0.60;;
33954;SDS011;20233;50.804;7.126;2024-03-02T05:14:56;3.10;;;0.90;;
33954;SDS011;20233;50.804;7.126;2024-03-02T05:17:22;2.35;;;0.73;;
33954;SDS011;20233;50.804;7.126;2024-03-02T05:19:47;3.05;;;0.80;;
33954;SDS011;20233;50.804;7.126;2024-03-02T05:22:13;1.85;;;0.60;;
33954;SDS011;20233;50.804;7.126;2024-03-02T05:24:39;4.28;;;0.95;;
33954;SDS011;20233;50.804;7.126;2024-03-02T05:27:04;2.58;;;0.70;;
33954;SDS011;20233;50.804;7.126;2024-03-02T05:29:31;2.10;;;0.85;;
33954;SDS011;20233;50.804;7.126;2024-03-02T05:31:56;2.28;;;1.08;;
33954;SDS011;20233;50.804;7.126;2024-03-02T05:34:22;2.28;;;0.80;;
33954;SDS011;20233;50.804;7.126;2024-03-02T05:36:47;3.08;;;1.33;;
33954;SDS011;20233;50.804;7.126;2024-03-02T05:39:13;3.50;;;1.17;;
33954;SDS011;20233;50.804;7.126;2024-03-02T05:41:38;3.35;;;1.05;;
33954;SDS011;20233;50.804;7.126;2024-03-02T05:44:04;2.13;;;1.05;;
33954;SDS011;20233;50.804;7.126;2024-03-02T05:46:30;2.47;;;0.95;;
33954;SDS011;20233;50.804;7.126;2024-03-02T05:48:55;4.05;;;1.40;;
33954;SDS011;20233;50.804;7.126;2024-03-02T05:51:21;3.60;;;1.80;;
33954;SDS011;20233;50.804;7.126;2024-03-02T05:53:47;4.63;;;2.15;;
33954;SDS011;20233;50.804;7.126;2024-03-02T05:56:12;5.28;;;2.47;;
33954;SDS011;20233;50.804;7.126;2024-03-02T05:58:38;3.20;;;1.70;;
33954;SDS011;20233;50.804;7.126;2024-03-02T06:01:22;4.18;;;2.63;;
33954;SDS011;20233;50.804;7.126;2024-03-02T06:03:53;6.05;;;2.08;;
33954;SDS011;20233;50.804;7.126;2024-03-02T06:06:22;4.25;;;1.38;;
33954;SDS011;20233;50.804;7.126;2024-03-02T06:08:48;4.70;;;1.77;;
33954;SDS011;20233;50.804;7.126;2024-03-02T06:11:13;3.10;;;1.75;;
33954;SDS011;20233;50.804;7.126;2024-03-02T06:13:39;4.82;;;2.03;;
33954;SDS011;20233;50.804;7.126;2024-03-02T06:16:05;4.47;;;2.35;;
33954;SDS011;20233;50.804;7.126;2024-03-02T06:18:30;5.85;;;2.28;;
33954;SDS011;20233;50.804;7.126;2024-03-02T06:20:56;4.15;;;2.22;;
33954;SDS011;20233;50.804;7.126;2024-03-02T06:23:21;4.63;;;3.15;;
33954;SDS011;20233;50.804;7.126;2024-03-02T06:25:47;4.72;;;2.95;;
33954;SDS011;20233;50.804;7.126;2024-03-02T06:28:12;4.32;;;2.50;;
33954;SDS011;20233;50.804;7.126;2024-03-02T06:30:40;6.35;;;3.30;;
33954;SDS011;20233;50.804;7.126;2024-03-02T06:33:07;7.18;;;4.22;;
33954;SDS011;20233;50.804;7.126;2024-03-02T06:35:32;7.35;;;3.67;;
33954;SDS011;20233;50.804;7.126;2024-03-02T06:37:58;7.50;;;3.63;;
33954;SDS011;20233;50.804;7.126;2024-03-02T06:40:23;4.07;;;2.47;;
33954;SDS011;20233;50.804;7.126;2024-03-02T06:42:49;6.65;;;2.50;;
33954;SDS011;20233;50.804;7.126;2024-03-02T06:45:14;6.95;;;3.13;;
33954;SDS011;20233;50.804;7.126;2024-03-02T06:47:40;6.45;;;3.50;;
33954;SDS011;20233;50.804;7.126;2024-03-02T06:50:05;5.60;;;2.90;;
33954;SDS011;20233;50.804;7.126;2024-03-02T06:52:32;7.82;;;3.53;;
33954;SDS011;20233;50.804;7.126;2024-03-02T06:54:57;5.47;;;3.25;;
33954;SDS011;20233;50.804;7.126;2024-03-02T06:57:23;5.20;;;3.17;;
33954;SDS011;20233;50.804;7.126;2024-03-02T06:59:49;6.07;;;3.55;;
33954;SDS011;20233;50.804;7.126;2024-03-02T07:02:16;5.75;;;3.22;;
33954;SDS011;20233;50.804;7.126;2024-03-02T07:04:42;4.38;;;2.85;;
33954;SDS011;20233;50.804;7.126;2024-03-02T07:07:07;6.05;;;3.38;;
33954;SDS011;20233;50.804;7.126;2024-03-02T07:09:33;5.13;;;3.53;;
33954;SDS011;20233;50.804;7.126;2024-03-02T07:11:58;5.30;;;3.55;;
33954;SDS011;20233;50.804;7.126;2024-03-02T07:14:24;6.30;;;3.85;;
33954;SDS011;20233;50.804;7.126;2024-03-02T07:17:10;6.15;;;3.38;;
33954;SDS011;20233;50.804;7.126;2024-03-02T07:19:35;9.95;;;4.53;;
33954;SDS011;20233;50.804;7.126;2024-03-02T07:22:01;14.85;;;4.63;;
33954;SDS011;20233;50.804;7.126;2024-03-02T07:24:26;8.48;;;3.85;;
33954;SDS011;20233;50.804;7.126;2024-03-02T07:26:52;10.48;;;4.70;;
33954;SDS011;20233;50.804;7.126;2024-03-02T07:29:17;6.65;;;3.55;;
33954;SDS011;20233;50.804;7.126;2024-03-02T07:31:43;11.02;;;6.20;;
33954;SDS011;20233;50.804;7.126;2024-03-02T07:34:09;6.18;;;3.90;;
33954;SDS011;20233;50.804;7.126;2024-03-02T07:36:34;7.82;;;3.92;;
33954;SDS011;20233;50.804;7.126;2024-03-02T07:39:01;7.13;;;3.97;;
33954;SDS011;20233;50.804;7.126;2024-03-02T07:41:27;9.75;;;3.83;;
33954;SDS011;20233;50.804;7.126;2024-03-02T07:43:52;7.40;;;3.72;;
33954;SDS011;20233;50.804;7.126;2024-03-02T07:46:18;8.50;;;4.07;;
33954;SDS011;20233;50.804;7.126;2024-03-02T07:48:43;5.15;;;3.30;;
33954;SDS011;20233;50.804;7.126;2024-03-02T07:51:09;8.75;;;3.67;;
33954;SDS011;20233;50.804;7.126;2024-03-02T07:53:34;11.93;;;3.38;;
33954;SDS011;20233;50.804;7.126;2024-03-02T07:56:01;16.38;;;3.72;;
33954;SDS011;20233;50.804;7.126;2024-03-02T07:58:27;14.70;;;3.70;;
33954;SDS011;20233;50.804;7.126;2024-03-02T08:00:53;5.22;;;2.97;;
33954;SDS011;20233;50.804;7.126;2024-03-02T08:03:19;8.10;;;3.63;;
33954;SDS011;20233;50.804;7.126;2024-03-02T08:05:45;4.85;;;2.15;;
33954;SDS011;20233;50.804;7.126;2024-03-02T08:08:11;5.65;;;2.42;;
33954;SDS011;20233;50.804;7.126;2024-03-02T08:10:36;4.70;;;2.42;;
33954;SDS011;20233;50.804;7.126;2024-03-02T08:13:02;5.18;;;3.15;;
33954;SDS011;20233;50.804;7.126;2024-03-02T08:15:28;8.90;;;3.58;;
33954;SDS011;20233;50.804;7.126;2024-03-02T08:17:53;6.28;;;2.42;;
33954;SDS011;20233;50.804;7.126;2024-03-02T08:20:19;5.47;;;2.28;;
33954;SDS011;20233;50.804;7.126;2024-03-02T08:22:44;5.50;;;2.08;;
33954;SDS011;20233;50.804;7.126;2024-03-02T08:25:10;5.82;;;2.22;;
33954;SDS011;20233;50.804;7.126;2024-03-02T08:27:36;7.20;;;2.25;;
33954;SDS011;20233;50.804;7.126;2024-03-02T08:30:02;3.92;;;1.75;;
33954;SDS011;20233;50.804;7.126;2024-03-02T08:32:31;5.55;;;1.90;;
33954;SDS011;20233;50.804;7.126;2024-03-02T08:34:57;4.45;;;1.55;;
33954;SDS011;20233;50.804;7.126;2024-03-02T08:37:22;5.10;;;2.03;;
33954;SDS011;20233;50.804;7.126;2024-03-02T08:39:48;3.05;;;1.27;;
33954;SDS011;20233;50.804;7.126;2024-03-02T08:42:15;1.50;;;0.45;;
33954;SDS011;20233;50.804;7.126;2024-03-02T08:44:40;4.22;;;0.50;;
33954;SDS011;20233;50.804;7.126;2024-03-02T08:47:06;1.70;;;0.77;;
33954;SDS011;20233;50.804;7.126;2024-03-02T08:49:31;3.47;;;0.70;;
33954;SDS011;20233;50.804;7.126;2024-03-02T08:51:57;2.63;;;0.57;;
33954;SDS011;20233;50.804;7.126;2024-03-02T08:54:22;3.40;;;0.50;;
33954;SDS011;20233;50.804;7.126;2024-03-02T08:56:48;3.95;;;0.47;;
33954;SDS011;20233;50.804;7.126;2024-03-02T08:59:15;7.50;;;0.82;;
33954;SDS011;20233;50.804;7.126;2024-03-02T09:01:41;6.00;;;0.60;;
33954;SDS011;20233;50.804;7.126;2024-03-02T09:04:07;2.83;;;0.50;;
33954;SDS011;20233;50.804;7.126;2024-03-02T09:06:33;1.88;;;0.50;;
33954;SDS011;20233;50.804;7.126;2024-03-02T09:08:59;3.20;;;0.60;;
33954;SDS011;20233;50.804;7.126;2024-03-02T09:11:25;2.60;;;0.45;;
33954;SDS011;20233;50.804;7.126;2024-03-02T09:13:51;3.15;;;0.50;;
33954;SDS011;20233;50.804;7.126;2024-03-02T09:16:17;1.20;;;0.47;;
33954;SDS011;20233;50.804;7.126;2024-03-02T09:18:43;2.90;;;0.38;;
33954;SDS011;20233;50.804;7.126;2024-03-02T09:21:09;2.53;;;0.45;;
33954;SDS011;20233;50.804;7.126;2024-03-02T09:23:35;1.63;;;0.35;;
33954;SDS011;20233;50.804;7.126;2024-03-02T09:26:00;3.55;;;0.40;;
33954;SDS011;20233;50.804;7.126;2024-03-02T09:28:26;2.20;;;0.30;;
33954;SDS011;20233;50.804;7.126;2024-03-02T09:30:51;3.28;;;0.28;;
33954;SDS011;20233;50.804;7.126;2024-03-02T09:33:17;2.70;;;0.40;;
33954;SDS011;20233;50.804;7.126;2024-03-02T09:35:42;4.00;;;0.50;;
33954;SDS011;20233;50.804;7.126;2024-03-02T09:38:08;2.50;;;0.50;;
33954;SDS011;20233;50.804;7.126;2024-03-02T09:40:33;1.90;;;0.40;;
33954;SDS011;20233;50.804;7.126;2024-03-02T09:42:59;2.00;;;0.50;;
33954;SDS011;20233;50.804;7.126;2024-03-02T09:45:25;3.05;;;0.30;;
33954;SDS011;20233;50.804;7.126;2024-03-02T09:47:51;2.40;;;0.30;;
33954;SDS011;20233;50.804;7.126;2024-03-02T09:50:17;2.38;;;0.50;;
33954;SDS011;20233;50.804;7.126;2024-03-02T09:52:42;1.65;;;0.47;;
33954;SDS011;20233;50.804;7.126;2024-03-02T09:55:08;2.95;;;0.57;;
33954;SDS011;20233;50.804;7.126;2024-03-02T09:57:34;2.05;;;0.40;;
33954;SDS011;20233;50.804;7.126;2024-03-02T10:00:00;2.95;;;0.43;;
33954;SDS011;20233;50.804;7.126;2024-03-02T10:02:26;1.05;;;0.38;;
33954;SDS011;20233;50.804;7.126;2024-03-02T10:04:52;3.13;;;0.50;;
33954;SDS011;20233;50.804;7.126;2024-03-02T10:07:18;3.22;;;0.32;;
33954;SDS011;20233;50.804;7.126;2024-03-02T10:09:45;1.40;;;0.43;;
33954;SDS011;20233;50.804;7.126;2024-03-02T10:12:13;4.50;;;0.55;;
33954;SDS011;20233;50.804;7.126;2024-03-02T10:14:40;2.53;;;0.50;;
33954;SDS011;20233;50.804;7.126;2024-03-02T10:17:07;2.90;;;0.30;;
33954;SDS011;20233;50.804;7.126;2024-03-02T10:19:33;3.22;;;0.40;;
33954;SDS011;20233;50.804;7.126;2024-03-02T10:22:00;2.38;;;0.32;;
33954;SDS011;20233;50.804;7.126;2024-03-02T10:24:27;2.08;;;0.55;;
33954;SDS011;20233;50.804;7.126;2024-03-02T10:26:59;1.48;;;0.40;;
33954;SDS011;20233;50.804;7.126;2024-03-02T10:29:24;2.90;;;0.68;;
33954;SDS011;20233;50.804;7.126;2024-03-02T10:31:53;2.50;;;0.63;;
33954;SDS011;20233;50.804;7.126;2024-03-02T10:34:19;1.20;;;0.40;;
33954;SDS011;20233;50.804;7.126;2024-03-02T10:36:46;3.25;;;0.43;;
33954;SDS011;20233;50.804;7.126;2024-03-02T10:39:13;5.38;;;1.30;;
33954;SDS011;20233;50.804;7.126;2024-03-02T10:41:39;1.77;;;0.40;;
33954;SDS011;20233;50.804;7.126;2024-03-02T10:44:06;1.63;;;0.40;;
33954;SDS011;20233;50.804;7.126;2024-03-02T10:46:33;2.75;;;0.45;;
33954;SDS011;20233;50.804;7.126;2024-03-02T10:49:00;1.65;;;0.30;;
33954;SDS011;20233;50.804;7.126;2024-03-02T10:51:28;2.00;;;0.38;;
33954;SDS011;20233;50.804;7.126;2024-03-02T10:53:56;6.10;;;0.52;;
33954;SDS011;20233;50.804;7.126;2024-03-02T10:56:33;1.58;;;0.40;;
33954;SDS011;20233;50.804;7.126;2024-03-02T10:59:11;3.13;;;0.40;;
33954;SDS011;20233;50.804;7.126;2024-03-02T11:01:53;1.80;;;0.30;;
33954;SDS011;20233;50.804;7.126;2024-03-02T11:04:21;3.35;;;0.85;;
33954;SDS011;20233;50.804;7.126;2024-03-02T11:06:51;2.42;;;0.40;;
33954;SDS011;20233;50.804;7.126;2024-03-02T11:09:21;1.63;;;0.25;;
33954;SDS011;20233;50.804;7.126;2024-03-02T11:11:50;1.88;;;0.75;;
33954;SDS011;20233;50.804;7.126;2024-03-02T11:14:18;1.35;;;0.40;;
33954;SDS011;20233;50.804;7.126;2024-03-02T11:16:47;3.55;;;0.52;;
33954;SDS011;20233;50.804;7.126;2024-03-02T11:19:16;1.60;;;0.30;;
33954;SDS011;20233;50.804;7.126;2024-03-02T11:21:44;2.17;;;0.60;;
33954;SDS011;20233;50.804;7.126;2024-03-02T11:26:49;1.75;;;0.40;;
33954;SDS011;20233;50.804;7.126;2024-03-02T11:32:22;1.77;;;0.73;;
33954;SDS011;20233;50.804;7.126;2024-03-02T11:34:53;2.63;;;0.60;;
33954;SDS011;20233;50.804;7.126;2024-03-02T11:37:35;2.35;;;0.70;;
33954;SDS011;20233;50.804;7.126;2024-03-02T11:40:02;2.50;;;0.70;;
33954;SDS011;20233;50.804;7.126;2024-03-02T11:42:28;2.10;;;0.57;;
33954;SDS011;20233;50.804;7.126;2024-03-02T11:44:55;4.00;;;0.80;;
33954;SDS011;20233;50.804;7.126;2024-03-02T11:47:22;1.02;;;0.30;;
33954;SDS011;20233;50.804;7.126;2024-03-02T11:49:49;2.60;;;0.52;;
33954;SDS011;20233;50.804;7.126;2024-03-02T11:52:16;1.92;;;0.80;;
33954;SDS011;20233;50.804;7.126;2024-03-02T11:54:43;1.85;;;0.30;;
33954;SDS011;20233;50.804;7.126;2024-03-02T11:57:17;3.17;;;0.43;;
33954;SDS011;20233;50.804;7.126;2024-03-02T11:59:44;3.00;;;0.38;;
33954;SDS011;20233;50.804;7.126;2024-03-02T12:02:14;1.65;;;0.30;;
33954;SDS011;20233;50.804;7.126;2024-03-02T12:04:41;2.97;;;0.68;;
33954;SDS011;20233;50.804;7.126;2024-03-02T12:07:08;1.02;;;0.30;;
33954;SDS011;20233;50.804;7.126;2024-03-02T12:09:34;2.50;;;0.30;;
33954;SDS011;20233;50.804;7.126;2024-03-02T12:12:01;3.03;;;0.25;;
33954;SDS011;20233;50.804;7.126;2024-03-02T12:14:28;1.33;;;0.20;;
33954;SDS011;20233;50.804;7.126;2024-03-02T12:16:54;0.93;;;0.10;;
33954;SDS011;20233;50.804;7.126;2024-03-02T12:19:21;1.83;;;0.20;;
33954;SDS011;20233;50.804;7.126;2024-03-02T12:21:47;3.13;;;0.50;;
33954;SDS011;20233;50.804;7.126;2024-03-02T12:24:13;2.72;;;0.80;;
33954;SDS011;20233;50.804;7.126;2024-03-02T12:26:39;2.72;;;0.30;;
33954;SDS011;20233;50.804;7.126;2024-03-02T12:29:06;1.63;;;0.50;;
33954;SDS011;20233;50.804;7.126;2024-03-02T12:31:32;2.47;;;0.50;;
33954;SDS011;20233;50.804;7.126;2024-03-02T12:33:58;1.83;;;0.50;;
33954;SDS011;20233;50.804;7.126;2024-03-02T12:36:24;2.15;;;0.50;;
33954;SDS011;20233;50.804;7.126;2024-03-02T12:38:52;2.03;;;0.57;;
33954;SDS011;20233;50.804;7.126;2024-03-02T12:41:19;1.45;;;0.47;;
33954;SDS011;20233;50.804;7.126;2024-03-02T12:43:45;1.95;;;0.50;;
33954;SDS011;20233;50.804;7.126;2024-03-02T12:46:11;1.58;;;0.50;;
33954;SDS011;20233;50.804;7.126;2024-03-02T12:48:38;2.10;;;0.40;;
33954;SDS011;20233;50.804;7.126;2024-03-02T12:51:07;1.20;;;0.50;;
33954;SDS011;20233;50.804;7.126;2024-03-02T12:53:32;1.50;;;0.30;;
33954;SDS011;20233;50.804;7.126;2024-03-02T12:55:58;2.97;;;0.40;;
33954;SDS011;20233;50.804;7.126;2024-03-02T12:58:24;1.65;;;0.30;;
33954;SDS011;20233;50.804;7.126;2024-03-02T13:00:55;3.38;;;0.38;;
33954;SDS011;20233;50.804;7.126;2024-03-02T13:03:31;1.52;;;0.60;;
33954;SDS011;20233;50.804;7.126;2024-03-02T13:05:59;1.75;;;0.50;;
33954;SDS011;20233;50.804;7.126;2024-03-02T13:08:25;2.00;;;0.40;;
33954;SDS011;20233;50.804;7.126;2024-03-02T13:10:51;3.38;;;0.50;;
33954;SDS011;20233;50.804;7.126;2024-03-02T13:13:16;1.92;;;0.40;;
33954;SDS011;20233;50.804;7.126;2024-03-02T13:15:42;2.53;;;0.40;;
33954;SDS011;20233;50.804;7.126;2024-03-02T13:18:08;1.40;;;0.30;;
33954;SDS011;20233;50.804;7.126;2024-03-02T13:20:34;1.75;;;0.35;;
33954;SDS011;20233;50.804;7.126;2024-03-02T13:23:00;2.25;;;0.30;;
33954;SDS011;20233;50.804;7.126;2024-03-02T13:25:26;1.17;;;0.28;;
33954;SDS011;20233;50.804;7.126;2024-03-02T13:27:52;1.50;;;0.20;;
33954;SDS011;20233;50.804;7.126;2024-03-02T13:30:18;0.70;;;0.10;;
33954;SDS011;20233;50.804;7.126;2024-03-02T13:32:44;1.85;;;0.10;;
33954;SDS011;20233;50.804;7.126;2024-03-02T13:35:09;1.00;;;0.28;;
33954;SDS011;20233;50.804;7.126;2024-03-02T13:37:36;0.80;;;0.10;;
33954;SDS011;20233;50.804;7.126;2024-03-02T13:40:02;0.82;;;0.10;;
33954;SDS011;20233;50.804;7.126;2024-03-02T13:42:29;2.35;;;0.10;;
33954;SDS011;20233;50.804;7.126;2024-03-02T13:44:55;0.90;;;0.20;;
33954;SDS011;20233;50.804;7.126;2024-03-02T13:47:21;1.88;;;0.20;;
33954;SDS011;20233;50.804;7.126;2024-03-02T13:49:46;1.20;;;0.30;;
33954;SDS011;20233;50.804;7.126;2024-03-02T13:52:14;2.78;;;0.20;;
33954;SDS011;20233;50.804;7.126;2024-03-02T13:54:41;0.60;;;0.20;;
33954;SDS011;20233;50.804;7.126;2024-03-02T13:57:09;2.92;;;0.30;;
33954;SDS011;20233;50.804;7.126;2024-03-02T13:59:36;1.30;;;0.22;;
33954;SDS011;20233;50.804;7.126;2024-03-02T14:02:02;1.13;;;0.30;;
33954;SDS011;20233;50.804;7.126;2024-03-02T14:04:30;1.30;;;0.20;;
33954;SDS011;20233;50.804;7.126;2024-03-02T14:06:59;1.07;;;0.30;;
33954;SDS011;20233;50.804;7.126;2024-03-02T14:09:25;2.95;;;0.30;;
33954;SDS011;20233;50.804;7.126;2024-03-02T14:11:52;1.70;;;0.30;;
33954;SDS011;20233;50.804;7.126;2024-03-02T14:14:18;1.40;;;0.55;;
33954;SDS011;20233;50.804;7.126;2024-03-02T14:16:43;0.85;;;0.30;;
33954;SDS011;20233;50.804;7.126;2024-03-02T14:19:10;1.85;;;0.30;;
33954;SDS011;20233;50.804;7.126;2024-03-02T14:21:37;1.42;;;0.20;;
33954;SDS011;20233;50.804;7.126;2024-03-02T14:24:05;1.45;;;0.22;;
33954;SDS011;20233;50.804;7.126;2024-03-02T14:26:34;1.17;;;0.25;;
33954;SDS011;20233;50.804;7.126;2024-03-02T14:29:01;0.93;;;0.20;;
33954;SDS011;20233;50.804;7.126;2024-03-02T14:31:28;1.88;;;0.20;;
33954;SDS011;20233;50.804;7.126;2024-03-02T14:33:54;1.02;;;0.52;;
33954;SDS011;20233;50.804;7.126;2024-03-02T14:36:20;1.10;;;0.20;;
33954;SDS011;20233;50.804;7.126;2024-03-02T14:38:45;0.98;;;0.20;;
33954;SDS011;20233;50.804;7.126;2024-03-02T14:41:11;1.17;;;0.30;;
33954;SDS011;20233;50.804;7.126;2024-03-02T14:43:38;0.90;;;0.20;;
33954;SDS011;20233;50.804;7.126;2024-03-02T14:46:03;2.28;;;0.30;;
33954;SDS011;20233;50.804;7.126;2024-03-02T14:48:29;3.00;;;0.30;;
33954;SDS011;20233;50.804;7.126;2024-03-02T14:50:55;1.60;;;0.40;;
33954;SDS011;20233;50.804;7.126;2024-03-02T14:53:21;1.00;;;0.20;;